createdAt,value
2023-05-13T00:00:31.516Z,11.74
2023-05-13T00:02:58.265Z,11.71
2023-05-13T00:05:25.044Z,11.71
2023-05-13T00:07:51.691Z,11.69
2023-05-13T00:10:20.553Z,11.68
2023-05-13T00:12:47.910Z,11.64
2023-05-13T00:15:14.555Z,11.65
2023-05-13T00:17:41.296Z,11.65
2023-05-13T00:20:08.457Z,11.61
2023-05-13T00:22:35.207Z,11.56
2023-05-13T00:25:01.852Z,11.52
2023-05-13T00:27:28.456Z,11.46
2023-05-13T00:29:55.080Z,11.42
2023-05-13T00:32:21.708Z,11.39
2023-05-13T00:34:48.473Z,11.33
2023-05-13T00:37:15.170Z,11.28
2023-05-13T00:39:42.177Z,11.25
2023-05-13T00:42:11.244Z,11.20
2023-05-13T00:44:38.560Z,11.15
2023-05-13T00:47:11.219Z,11.12
2023-05-13T00:49:38.161Z,11.07
2023-05-13T00:52:05.501Z,11.06
2023-05-13T00:54:32.546Z,10.96
2023-05-13T00:56:59.532Z,10.96
2023-05-13T00:59:29.073Z,10.96
2023-05-13T01:02:07.845Z,10.91
2023-05-13T01:05:12.114Z,10.84
2023-05-13T01:07:50.382Z,10.77
2023-05-13T01:10:30.353Z,10.75
2023-05-13T01:13:03.245Z,10.72
2023-05-13T01:15:31.345Z,10.67
2023-05-13T01:18:06.303Z,10.62
2023-05-13T01:20:34.741Z,10.54
2023-05-13T01:23:01.437Z,10.51
2023-05-13T01:25:28.550Z,10.50
2023-05-13T01:27:55.775Z,10.48
2023-05-13T01:30:23.948Z,10.44
2023-05-13T01:32:51.990Z,10.42
2023-05-13T01:35:20.706Z,10.38
2023-05-13T01:37:48.915Z,10.35
2023-05-13T01:40:31.082Z,10.31
2023-05-13T01:42:59.291Z,10.27
2023-05-13T01:45:28.835Z,10.23
2023-05-13T01:47:55.590Z,10.21
2023-05-13T01:50:22.572Z,10.17
2023-05-13T01:52:49.380Z,10.13
2023-05-13T01:55:16.126Z,10.09
2023-05-13T01:57:42.743Z,10.05
2023-05-13T02:00:09.985Z,10.01
2023-05-13T02:02:36.738Z,9.94
2023-05-13T02:05:03.591Z,9.91
2023-05-13T02:07:30.283Z,9.85
2023-05-13T02:09:59.969Z,9.79
2023-05-13T02:12:27.266Z,9.77
2023-05-13T02:14:54.819Z,9.71
2023-05-13T02:17:22.611Z,9.70
2023-05-13T02:19:49.369Z,9.67
2023-05-13T02:22:16.596Z,9.62
2023-05-13T02:24:43.292Z,9.59
2023-05-13T02:27:12.605Z,9.54
2023-05-13T02:29:39.345Z,9.50
2023-05-13T02:32:06.563Z,9.48
2023-05-13T02:34:33.400Z,9.44
2023-05-13T02:37:00.133Z,9.42
2023-05-13T02:39:27.006Z,9.39
2023-05-13T02:41:53.653Z,9.35
2023-05-13T02:44:20.348Z,9.31
2023-05-13T02:46:46.992Z,9.29
2023-05-13T02:49:16.091Z,9.26
2023-05-13T02:51:42.787Z,9.25
2023-05-13T02:54:09.397Z,9.23
2023-05-13T02:56:36.296Z,9.22
2023-05-13T02:59:03.008Z,9.21
2023-05-13T03:01:29.826Z,9.18
2023-05-13T03:03:56.592Z,9.16
2023-05-13T03:06:23.269Z,9.14
2023-05-13T03:08:50.057Z,9.12
2023-05-13T03:11:16.912Z,9.12
2023-05-13T03:13:43.553Z,9.12
2023-05-13T03:16:10.369Z,9.13
2023-05-13T03:18:37.059Z,9.12
2023-05-13T03:21:03.722Z,9.10
2023-05-13T03:23:30.886Z,9.09
2023-05-13T03:25:57.567Z,9.06
2023-05-13T03:28:24.211Z,9.06
2023-05-13T03:30:51.191Z,9.07
2023-05-13T03:33:18.284Z,9.02
2023-05-13T03:35:45.702Z,9.03
2023-05-13T03:38:12.537Z,9.03
2023-05-13T03:40:39.223Z,9.04
2023-05-13T03:43:06.132Z,9.04
2023-05-13T03:45:32.914Z,9.04
2023-05-13T03:47:59.735Z,9.05
2023-05-13T03:50:26.633Z,9.04
2023-05-13T03:52:53.345Z,9.02
2023-05-13T03:55:20.189Z,9.03
2023-05-13T03:57:49.259Z,8.99
2023-05-13T04:00:16.435Z,9.00
2023-05-13T04:02:43.504Z,8.99
2023-05-13T04:05:11.061Z,8.98
2023-05-13T04:07:37.849Z,9.00
2023-05-13T04:10:04.948Z,9.01
2023-05-13T04:12:33.398Z,9.04
2023-05-13T04:15:20.663Z,9.03
2023-05-13T04:17:47.481Z,9.06
2023-05-13T04:20:14.641Z,9.09
2023-05-13T04:22:41.391Z,9.09
2023-05-13T04:25:08.568Z,9.13
2023-05-13T04:27:35.405Z,9.17
2023-05-13T04:30:02.336Z,9.20
2023-05-13T04:32:29.103Z,9.26
2023-05-13T04:34:55.888Z,9.32
2023-05-13T04:37:24.981Z,9.36
2023-05-13T04:39:51.635Z,9.40
2023-05-13T04:42:18.285Z,9.45
2023-05-13T04:44:45.369Z,9.49
2023-05-13T04:47:11.969Z,9.51
2023-05-13T04:49:38.543Z,9.58
2023-05-13T04:52:06.637Z,9.75
2023-05-13T04:54:35.850Z,9.85
2023-05-13T04:57:03.462Z,9.93
2023-05-13T04:59:30.266Z,9.91
2023-05-13T05:01:56.973Z,9.91
2023-05-13T05:04:25.193Z,9.94
2023-05-13T05:06:51.832Z,9.96
2023-05-13T05:09:18.951Z,9.89
2023-05-13T05:11:45.720Z,9.95
2023-05-13T05:14:12.326Z,9.99
2023-05-13T05:16:38.905Z,10.03
2023-05-13T05:19:05.634Z,10.08
2023-05-13T05:21:32.285Z,10.12
2023-05-13T05:23:59.909Z,10.20
2023-05-13T05:26:26.793Z,10.24
2023-05-13T05:28:53.495Z,10.27
2023-05-13T05:31:20.290Z,10.28
2023-05-13T05:33:46.934Z,10.31
2023-05-13T05:36:13.542Z,10.31
2023-05-13T05:38:41.733Z,10.39
2023-05-13T05:41:08.490Z,10.45
2023-05-13T05:43:35.187Z,10.49
2023-05-13T05:46:01.837Z,10.55
2023-05-13T05:48:28.480Z,10.54
2023-05-13T05:50:56.422Z,10.64
2023-05-13T05:53:22.991Z,10.72
2023-05-13T05:55:51.633Z,10.80
2023-05-13T05:58:19.746Z,10.85
2023-05-13T06:00:46.506Z,10.92
2023-05-13T06:03:14.148Z,11.02
2023-05-13T06:05:41.136Z,11.05
2023-05-13T06:08:07.755Z,11.12
2023-05-13T06:10:35.319Z,11.28
2023-05-13T06:13:02.425Z,11.36
2023-05-13T06:15:29.073Z,11.44
2023-05-13T06:17:56.047Z,11.56
2023-05-13T06:20:23.169Z,11.66
2023-05-13T06:22:50.086Z,11.79
2023-05-13T06:25:16.922Z,11.87
2023-05-13T06:27:43.523Z,11.96
2023-05-13T06:30:10.862Z,12.02
2023-05-13T06:32:39.371Z,12.01
2023-05-13T06:35:07.907Z,12.04
2023-05-13T06:37:34.692Z,12.13
2023-05-13T06:40:01.389Z,12.32
2023-05-13T06:42:28.049Z,12.54
2023-05-13T06:44:54.704Z,12.76
2023-05-13T06:47:24.032Z,12.94
2023-05-13T06:49:50.682Z,12.91
2023-05-13T06:52:17.411Z,12.88
2023-05-13T06:54:44.020Z,12.97
2023-05-13T06:57:10.687Z,13.10
2023-05-13T06:59:37.456Z,13.26
2023-05-13T07:02:04.619Z,13.41
2023-05-13T07:04:31.450Z,13.56
2023-05-13T07:06:58.165Z,13.80
2023-05-13T07:09:24.966Z,14.09
2023-05-13T07:11:51.686Z,14.16
2023-05-13T07:14:18.337Z,14.35
2023-05-13T07:16:45.018Z,14.55
2023-05-13T07:19:11.666Z,14.80
2023-05-13T07:21:39.061Z,14.93
2023-05-13T07:24:05.897Z,15.23
2023-05-13T07:26:32.607Z,15.55
2023-05-13T07:28:59.729Z,15.65
2023-05-13T07:31:26.763Z,15.78
2023-05-13T07:33:53.723Z,16.18
2023-05-13T07:36:20.456Z,16.23
2023-05-13T07:38:47.069Z,16.59
2023-05-13T07:41:13.779Z,16.80
2023-05-13T07:43:40.985Z,16.90
2023-05-13T07:46:07.624Z,17.00
2023-05-13T07:48:34.270Z,17.30
2023-05-13T07:51:01.491Z,17.60
2023-05-13T07:53:28.224Z,17.82
2023-05-13T07:55:54.972Z,18.12
2023-05-13T07:58:21.765Z,18.38
2023-05-13T08:00:49.644Z,18.52
2023-05-13T08:03:17.153Z,18.37
2023-05-13T08:05:44.125Z,18.68
2023-05-13T08:08:10.863Z,18.88
2023-05-13T08:10:37.608Z,19.03
2023-05-13T08:13:04.327Z,19.16
2023-05-13T08:15:30.983Z,19.26
2023-05-13T08:17:57.742Z,19.28
2023-05-13T08:20:29.910Z,19.39
2023-05-13T08:22:58.353Z,19.27
2023-05-13T08:25:25.442Z,18.83
2023-05-13T08:27:52.242Z,18.88
2023-05-13T08:30:19.084Z,18.97
2023-05-13T08:32:46.164Z,19.09
2023-05-13T08:35:12.893Z,18.72
2023-05-13T08:37:39.871Z,18.71
2023-05-13T08:40:08.289Z,18.62
2023-05-13T08:42:38.216Z,18.64
2023-05-13T08:45:05.786Z,18.46
2023-05-13T08:47:50.368Z,18.23
2023-05-13T08:50:17.994Z,18.19
2023-05-13T08:52:44.873Z,18.24
2023-05-13T08:55:11.879Z,17.96
2023-05-13T08:57:39.646Z,17.92
2023-05-13T09:00:07.108Z,17.94
2023-05-13T09:02:33.745Z,17.89
2023-05-13T09:05:05.033Z,17.94
2023-05-13T09:07:31.849Z,17.96
2023-05-13T09:09:58.890Z,17.80
2023-05-13T09:12:51.732Z,17.76
2023-05-13T09:15:23.813Z,17.74
2023-05-13T09:17:56.290Z,17.72
2023-05-13T09:20:25.463Z,17.80
2023-05-13T09:22:53.642Z,17.68
2023-05-13T09:25:24.513Z,17.52
2023-05-13T09:27:58.864Z,17.56
2023-05-13T09:30:28.699Z,17.69
2023-05-13T09:33:14.320Z,17.81
2023-05-13T09:35:53.797Z,17.75
2023-05-13T09:38:27.792Z,17.74
2023-05-13T09:40:58.603Z,17.54
2023-05-13T09:43:32.336Z,17.67
2023-05-13T09:46:05.039Z,17.77
2023-05-13T09:48:33.562Z,17.91
2023-05-13T09:51:00.375Z,18.00
2023-05-13T09:53:28.525Z,18.08
2023-05-13T09:55:57.144Z,18.13
2023-05-13T09:58:26.733Z,18.07
2023-05-13T10:00:53.840Z,18.18
2023-05-13T10:03:21.062Z,18.22
2023-05-13T10:05:49.933Z,18.34
2023-05-13T10:08:18.274Z,18.37
2023-05-13T10:10:46.673Z,18.23
2023-05-13T10:13:18.199Z,18.47
2023-05-13T10:15:50.015Z,18.42
2023-05-13T10:18:17.913Z,18.48
2023-05-13T10:20:45.024Z,18.58
2023-05-13T10:23:11.746Z,18.64
2023-05-13T10:25:39.294Z,18.69
2023-05-13T10:28:06.771Z,18.49
2023-05-13T10:30:35.960Z,18.64
2023-05-13T10:33:04.069Z,18.71
2023-05-13T10:35:37.511Z,18.81
2023-05-13T10:38:05.208Z,19.03
2023-05-13T10:40:47.758Z,19.11
2023-05-13T10:43:43.849Z,19.01
2023-05-13T10:46:13.970Z,18.93
2023-05-13T10:48:48.665Z,19.05
2023-05-13T10:51:17.368Z,19.28
2023-05-13T10:53:54.858Z,19.38
2023-05-13T10:56:28.847Z,19.61
2023-05-13T10:59:01.462Z,19.38
2023-05-13T11:01:30.602Z,19.16
2023-05-13T11:04:00.680Z,19.39
2023-05-13T11:06:34.281Z,19.53
2023-05-13T11:09:01.578Z,19.29
2023-05-13T11:11:35.785Z,19.52
2023-05-13T11:14:11.295Z,19.94
2023-05-13T11:16:38.370Z,19.96
2023-05-13T11:19:18.447Z,20.17
2023-05-13T11:21:49.911Z,20.02
2023-05-13T11:24:21.968Z,20.33
2023-05-13T11:26:59.080Z,20.39
2023-05-13T11:29:33.621Z,20.82
2023-05-13T11:32:02.018Z,20.20
2023-05-13T11:34:29.627Z,20.12
2023-05-13T11:37:07.267Z,20.26
2023-05-13T11:39:34.001Z,20.40
2023-05-13T11:42:05.186Z,21.21
2023-05-13T11:44:34.379Z,21.53
2023-05-13T11:47:06.237Z,21.39
2023-05-13T11:49:40.602Z,21.72
2023-05-13T11:52:15.401Z,22.09
2023-05-13T11:54:47.556Z,22.47
2023-05-13T11:57:20.750Z,22.41
2023-05-13T11:59:52.394Z,22.11
2023-05-13T12:02:30.531Z,22.56
2023-05-13T12:05:05.833Z,22.12
2023-05-13T12:07:33.305Z,21.87
2023-05-13T12:10:01.989Z,22.05
2023-05-13T12:12:31.024Z,22.44
2023-05-13T12:15:00.522Z,22.43
2023-05-13T12:17:27.703Z,21.63
2023-05-13T12:20:19.273Z,21.25
2023-05-13T12:22:45.898Z,22.00
2023-05-13T12:25:31.395Z,22.44
2023-05-13T12:28:19.059Z,22.49
2023-05-13T12:30:56.695Z,22.93
2023-05-13T12:33:25.660Z,23.23
2023-05-13T12:35:54.700Z,23.00
2023-05-13T12:38:24.606Z,23.19
2023-05-13T12:40:52.419Z,23.28
2023-05-13T12:43:19.876Z,23.50
2023-05-13T12:45:48.418Z,22.67
2023-05-13T12:48:15.053Z,22.52
2023-05-13T12:50:41.672Z,22.50
2023-05-13T12:53:08.339Z,22.96
2023-05-13T12:55:39.929Z,22.92
2023-05-13T12:58:10.994Z,22.50
2023-05-13T13:00:38.153Z,22.52
2023-05-13T13:03:05.179Z,22.01
2023-05-13T13:05:32.082Z,22.14
2023-05-13T13:07:58.731Z,22.64
2023-05-13T13:10:25.312Z,22.93
2023-05-13T13:12:52.305Z,23.26
2023-05-13T13:15:19.057Z,23.31
2023-05-13T13:17:45.724Z,23.24
2023-05-13T13:20:12.751Z,23.44
2023-05-13T13:22:39.561Z,23.09
2023-05-13T13:25:07.159Z,23.30
2023-05-13T13:27:34.727Z,23.63
2023-05-13T13:30:01.354Z,23.48
2023-05-13T13:32:28.165Z,22.95
2023-05-13T13:34:54.968Z,23.36
2023-05-13T13:37:21.523Z,23.00
2023-05-13T13:39:48.117Z,23.00
2023-05-13T13:42:14.717Z,23.42
2023-05-13T13:44:41.279Z,23.33
2023-05-13T13:47:09.784Z,22.90
2023-05-13T13:49:36.552Z,22.82
2023-05-13T13:52:03.266Z,22.70
2023-05-13T13:54:29.866Z,22.76
2023-05-13T13:56:56.554Z,22.79
2023-05-13T13:59:23.264Z,22.90
2023-05-13T14:01:50.145Z,23.12
2023-05-13T14:04:23.678Z,23.08
2023-05-13T14:06:51.386Z,23.08
2023-05-13T14:09:18.565Z,23.20
2023-05-13T14:11:45.586Z,22.91
2023-05-13T14:14:12.422Z,22.93
2023-05-13T14:16:39.017Z,22.87
2023-05-13T14:19:05.717Z,22.79
2023-05-13T14:21:32.742Z,22.44
2023-05-13T14:23:59.391Z,22.49
2023-05-13T14:26:26.264Z,22.25
2023-05-13T14:28:54.184Z,22.12
2023-05-13T14:31:21.096Z,22.16
2023-05-13T14:33:47.834Z,22.19
2023-05-13T14:36:16.299Z,22.35
2023-05-13T14:38:45.720Z,22.23
2023-05-13T14:41:12.698Z,22.53
2023-05-13T14:43:39.306Z,22.37
2023-05-13T14:46:06.089Z,22.23
2023-05-13T14:48:32.716Z,22.22
2023-05-13T14:50:59.459Z,22.33
2023-05-13T14:53:26.175Z,22.25
2023-05-13T14:55:53.215Z,22.52
2023-05-13T14:58:19.907Z,22.32
2023-05-13T15:00:46.709Z,22.31
2023-05-13T15:03:13.455Z,22.33
2023-05-13T15:05:43.312Z,22.07
2023-05-13T15:08:10.791Z,22.21
2023-05-13T15:10:37.445Z,22.10
2023-05-13T15:13:04.077Z,22.26
2023-05-13T15:15:30.857Z,22.00
2023-05-13T15:17:57.509Z,22.15
2023-05-13T15:20:24.398Z,21.95
2023-05-13T15:22:51.084Z,21.56
2023-05-13T15:25:17.842Z,21.46
2023-05-13T15:27:44.857Z,21.40
2023-05-13T15:30:11.714Z,21.26
2023-05-13T15:32:38.804Z,21.25
2023-05-13T15:35:06.057Z,21.03
2023-05-13T15:37:32.835Z,20.96
2023-05-13T15:39:59.491Z,20.95
2023-05-13T15:42:26.820Z,20.50
2023-05-13T15:44:53.452Z,20.18
2023-05-13T15:47:20.228Z,19.95
2023-05-13T15:49:46.990Z,19.91
2023-05-13T15:52:14.731Z,19.94
2023-05-13T15:54:41.383Z,19.51
2023-05-13T15:57:09.105Z,19.49
2023-05-13T15:59:35.874Z,19.10
2023-05-13T16:02:02.609Z,18.94
2023-05-13T16:04:29.389Z,18.93
2023-05-13T16:06:56.015Z,18.95
2023-05-13T16:09:22.610Z,18.82
2023-05-13T16:11:49.244Z,18.68
2023-05-13T16:14:16.719Z,18.64
2023-05-13T16:16:46.207Z,18.32
2023-05-13T16:19:13.034Z,18.45
2023-05-13T16:21:42.852Z,18.62
2023-05-13T16:24:09.538Z,18.57
2023-05-13T16:26:36.232Z,18.59
2023-05-13T16:29:03.149Z,18.64
2023-05-13T16:31:29.852Z,18.75
2023-05-13T16:33:56.829Z,18.78
2023-05-13T16:36:23.498Z,18.80
2023-05-13T16:38:50.269Z,18.77
2023-05-13T16:41:16.978Z,18.72
2023-05-13T16:43:43.645Z,18.54
2023-05-13T16:46:10.382Z,18.50
2023-05-13T16:48:37.017Z,18.56
2023-05-13T16:51:03.875Z,18.44
2023-05-13T16:53:30.881Z,18.33
2023-05-13T16:55:57.511Z,18.28
2023-05-13T16:58:24.254Z,18.26
2023-05-13T17:00:50.970Z,18.26
2023-05-13T17:03:17.841Z,18.16
2023-05-13T17:05:44.911Z,18.13
2023-05-13T17:08:11.610Z,18.08
2023-05-13T17:10:38.222Z,18.01
2023-05-13T17:13:04.857Z,17.82
2023-05-13T17:15:31.701Z,17.79
2023-05-13T17:17:58.455Z,17.74
2023-05-13T17:20:25.554Z,17.74
2023-05-13T17:22:52.259Z,17.77
2023-05-13T17:25:18.880Z,17.70
2023-05-13T17:27:45.528Z,17.67
2023-05-13T17:30:12.677Z,17.58
2023-05-13T17:32:39.448Z,17.56
2023-05-13T17:35:06.827Z,17.54
2023-05-13T17:37:33.489Z,17.52
2023-05-13T17:40:02.492Z,17.55
2023-05-13T17:42:30.349Z,17.43
2023-05-13T17:44:57.135Z,17.39
2023-05-13T17:47:23.825Z,17.30
2023-05-13T17:49:50.585Z,17.37
2023-05-13T17:52:17.233Z,17.39
2023-05-13T17:54:43.843Z,17.32
2023-05-13T17:57:11.174Z,17.25
2023-05-13T17:59:37.903Z,17.18
2023-05-13T18:02:04.713Z,17.17
2023-05-13T18:04:31.631Z,17.17
2023-05-13T18:06:58.333Z,17.04
2023-05-13T18:09:24.988Z,16.99
2023-05-13T18:11:51.828Z,16.86
2023-05-13T18:14:18.876Z,16.77
2023-05-13T18:16:46.037Z,16.61
2023-05-13T18:19:12.808Z,16.52
2023-05-13T18:21:39.527Z,16.42
2023-05-13T18:24:06.878Z,16.37
2023-05-13T18:26:33.814Z,16.32
2023-05-13T18:29:00.681Z,16.33
2023-05-13T18:31:27.425Z,16.33
2023-05-13T18:33:54.058Z,16.19
2023-05-13T18:36:20.853Z,16.13
2023-05-13T18:38:48.026Z,16.06
2023-05-13T18:41:15.148Z,16.08
2023-05-13T18:43:41.929Z,16.03
2023-05-13T18:46:09.555Z,15.98
2023-05-13T18:48:36.395Z,15.86
2023-05-13T18:51:03.181Z,15.71
2023-05-13T18:53:29.836Z,15.58
2023-05-13T18:55:56.746Z,15.57
2023-05-13T18:58:23.452Z,15.37
2023-05-13T19:00:50.089Z,15.34
2023-05-13T19:03:17.023Z,15.24
2023-05-13T19:05:45.012Z,15.10
2023-05-13T19:08:11.690Z,15.03
2023-05-13T19:10:40.404Z,14.99
2023-05-13T19:13:07.324Z,14.93
2023-05-13T19:15:34.243Z,14.81
2023-05-13T19:18:01.381Z,14.74
2023-05-13T19:20:29.822Z,14.63
2023-05-13T19:22:56.468Z,14.51
2023-05-13T19:25:23.175Z,14.50
2023-05-13T19:27:49.882Z,14.41
2023-05-13T19:30:16.537Z,14.38
2023-05-13T19:32:43.825Z,14.24
2023-05-13T19:35:11.501Z,14.29
2023-05-13T19:37:38.275Z,14.30
2023-05-13T19:40:05.781Z,14.27
2023-05-13T19:42:32.445Z,14.22
2023-05-13T19:44:59.065Z,14.12
2023-05-13T19:47:26.961Z,14.07
2023-05-13T19:49:53.778Z,13.88
2023-05-13T19:52:20.926Z,13.72
2023-05-13T19:54:47.558Z,13.81
2023-05-13T19:57:14.163Z,13.82
2023-05-13T19:59:41.829Z,13.76
2023-05-13T20:02:09.129Z,13.69
2023-05-13T20:04:35.934Z,13.59
2023-05-13T20:07:02.691Z,13.53
2023-05-13T20:09:29.308Z,13.44
2023-05-13T20:11:56.151Z,13.43
2023-05-13T20:14:23.284Z,13.38
2023-05-13T20:16:50.027Z,13.33
2023-05-13T20:19:16.889Z,13.28
2023-05-13T20:21:43.551Z,13.23
2023-05-13T20:24:10.287Z,13.21
2023-05-13T20:26:36.948Z,13.19
2023-05-13T20:29:04.138Z,13.11
2023-05-13T20:31:30.919Z,13.03
2023-05-13T20:33:58.475Z,12.97
2023-05-13T20:36:25.155Z,12.88
2023-05-13T20:38:51.765Z,12.80
2023-05-13T20:41:18.532Z,12.75
2023-05-13T20:43:45.157Z,12.70
2023-05-13T20:46:16.759Z,12.62
2023-05-13T20:48:43.598Z,12.55
2023-05-13T20:51:10.738Z,12.48
2023-05-13T20:53:37.548Z,12.43
2023-05-13T20:56:04.377Z,12.37
2023-05-13T20:58:31.077Z,12.31
2023-05-13T21:00:57.905Z,12.26
2023-05-13T21:03:24.983Z,12.23
2023-05-13T21:05:51.746Z,12.19
2023-05-13T21:08:18.466Z,12.11
2023-05-13T21:10:45.218Z,12.06
2023-05-13T21:13:11.932Z,12.03
2023-05-13T21:15:38.840Z,11.96
2023-05-13T21:18:05.573Z,11.91
2023-05-13T21:20:32.791Z,11.84
2023-05-13T21:23:00.963Z,11.83
2023-05-13T21:25:27.744Z,11.81
2023-05-13T21:27:54.477Z,11.79
2023-05-13T21:30:21.440Z,11.77
2023-05-13T21:32:48.211Z,11.73
2023-05-13T21:35:15.006Z,11.69
2023-05-13T21:37:41.630Z,11.63
2023-05-13T21:40:09.022Z,11.55
2023-05-13T21:42:35.898Z,11.47
2023-05-13T21:45:03.162Z,11.46
2023-05-13T21:47:29.859Z,11.41
2023-05-13T21:49:56.608Z,11.34
2023-05-13T21:52:23.237Z,11.30
2023-05-13T21:54:49.862Z,11.26
2023-05-13T21:57:16.799Z,11.19
2023-05-13T21:59:43.416Z,11.16
2023-05-13T22:02:10.097Z,11.11
2023-05-13T22:04:36.908Z,11.06
2023-05-13T22:07:03.692Z,11.03
2023-05-13T22:09:30.340Z,10.97
2023-05-13T22:11:56.972Z,10.93
2023-05-13T22:14:23.570Z,10.89
2023-05-13T22:17:00.870Z,10.83
2023-05-13T22:19:34.989Z,10.77
2023-05-13T22:22:01.699Z,10.70
2023-05-13T22:24:28.323Z,10.68
2023-05-13T22:26:54.986Z,10.66
2023-05-13T22:29:21.590Z,10.62
2023-05-13T22:31:48.265Z,10.57
2023-05-13T22:34:14.852Z,10.55
2023-05-13T22:36:43.836Z,10.49
2023-05-13T22:39:12.260Z,10.43
2023-05-13T22:41:38.911Z,10.39
2023-05-13T22:44:05.747Z,10.35
2023-05-13T22:46:32.495Z,10.31
2023-05-13T22:48:59.235Z,10.30
2023-05-13T22:51:25.917Z,10.24
2023-05-13T22:53:52.487Z,10.21
2023-05-13T22:56:19.122Z,10.19
2023-05-13T22:58:46.183Z,10.21
2023-05-13T23:01:13.017Z,10.16
2023-05-13T23:03:39.744Z,10.13
2023-05-13T23:06:06.503Z,10.08
2023-05-13T23:08:33.236Z,10.05
2023-05-13T23:10:59.874Z,9.99
2023-05-13T23:13:26.536Z,9.99
2023-05-13T23:15:53.138Z,9.98
2023-05-13T23:18:19.950Z,9.97
2023-05-13T23:20:54.713Z,9.93
2023-05-13T23:23:21.860Z,9.93
2023-05-13T23:25:51.552Z,9.93
2023-05-13T23:28:18.295Z,9.91
2023-05-13T23:30:44.939Z,9.88
2023-05-13T23:33:11.565Z,9.85
2023-05-13T23:35:38.187Z,9.86
2023-05-13T23:38:04.829Z,9.87
2023-05-13T23:40:31.462Z,9.86
2023-05-13T23:42:58.071Z,9.86
2023-05-13T23:45:24.721Z,9.87
2023-05-13T23:47:51.561Z,9.85
2023-05-13T23:50:18.233Z,9.86
2023-05-13T23:52:44.901Z,9.85
2023-05-13T23:55:11.679Z,9.85
2023-05-13T23:57:38.354Z,9.86
